createdAt,value
2018-01-05T00:01:54.754Z,10.90
2018-01-05T00:04:22.949Z,15.47
2018-01-05T00:06:50.380Z,10.37
2018-01-05T00:09:17.778Z,9.87
2018-01-05T00:11:45.960Z,13.13
2018-01-05T00:14:14.170Z,12.50
2018-01-05T00:16:41.629Z,10.20
2018-01-05T00:19:09.105Z,7.17
2018-01-05T00:21:36.560Z,14.40
2018-01-05T00:24:03.974Z,10.27
2018-01-05T00:26:31.406Z,8.80
2018-01-05T00:28:58.861Z,5.97
2018-01-05T00:31:26.337Z,8.20
2018-01-05T00:33:53.744Z,11.23
2018-01-05T00:36:21.155Z,10.10
2018-01-05T00:38:49.754Z,9.20
2018-01-05T00:41:18.202Z,10.67
2018-01-05T00:43:45.629Z,6.70
2018-01-05T00:46:13.052Z,13.73
2018-01-05T00:48:40.450Z,10.03
2018-01-05T00:51:08.633Z,10.17
2018-01-05T00:53:36.834Z,4.87
2018-01-05T00:56:04.326Z,8.63
2018-01-05T00:58:31.821Z,6.40
2018-01-05T01:00:59.210Z,5.20
2018-01-05T01:03:26.723Z,6.97
2018-01-05T01:05:54.182Z,7.03
2018-01-05T01:08:21.598Z,10.70
2018-01-05T01:10:49.016Z,12.63
2018-01-05T01:13:16.439Z,6.63
2018-01-05T01:15:43.855Z,17.63
2018-01-05T01:18:11.253Z,9.57
2018-01-05T01:20:38.662Z,7.97
2018-01-05T01:23:06.161Z,9.30
2018-01-05T01:25:33.625Z,9.50
2018-01-05T01:28:01.038Z,8.63
2018-01-05T01:30:28.485Z,8.20
2018-01-05T01:32:55.876Z,10.30
2018-01-05T01:35:24.099Z,10.07
2018-01-05T01:37:51.517Z,11.50
2018-01-05T01:40:18.931Z,5.57
2018-01-05T01:42:47.105Z,8.37
2018-01-05T01:45:14.618Z,8.63
2018-01-05T01:47:42.034Z,12.43
2018-01-05T01:50:09.542Z,11.93
2018-01-05T01:52:36.947Z,9.00
2018-01-05T01:55:04.349Z,12.03
2018-01-05T01:57:32.524Z,11.07
2018-01-05T01:59:59.956Z,12.50
2018-01-05T02:02:27.369Z,12.60
2018-01-05T02:04:54.777Z,11.87
2018-01-05T02:07:22.237Z,11.30
2018-01-05T02:09:49.670Z,14.60
2018-01-05T02:12:17.190Z,14.30
2018-01-05T02:14:44.602Z,15.67
2018-01-05T02:17:12.019Z,12.97
2018-01-05T02:19:39.429Z,48.45
2018-01-05T02:22:06.964Z,26.60
2018-01-05T02:24:34.377Z,25.43
2018-01-05T02:27:01.892Z,7.53
2018-01-05T02:29:29.329Z,11.87
2018-01-05T02:31:56.737Z,10.73
2018-01-05T02:34:24.163Z,10.10
2018-01-05T02:36:51.677Z,14.13
2018-01-05T02:39:19.106Z,13.40
2018-01-05T02:41:46.572Z,9.77
2018-01-05T02:44:13.982Z,16.70
2018-01-05T02:46:41.408Z,12.07
2018-01-05T02:49:08.903Z,15.87
2018-01-05T02:51:36.314Z,8.80
2018-01-05T02:54:03.738Z,13.80
2018-01-05T02:56:31.152Z,16.03
2018-01-05T02:58:58.615Z,12.47
2018-01-05T03:01:26.045Z,13.90
2018-01-05T03:03:53.441Z,12.80
2018-01-05T03:06:20.891Z,24.13
2018-01-05T03:08:49.048Z,11.37
2018-01-05T03:11:17.223Z,19.80
2018-01-05T03:13:44.729Z,12.73
2018-01-05T03:16:12.194Z,9.97
2018-01-05T03:18:39.609Z,13.57
2018-01-05T03:21:07.052Z,8.23
2018-01-05T03:23:34.453Z,9.00
2018-01-05T03:26:01.859Z,8.03
2018-01-05T03:28:29.285Z,9.87
2018-01-05T03:30:56.803Z,9.90
2018-01-05T03:33:24.277Z,11.00
2018-01-05T03:35:51.745Z,15.63
2018-01-05T03:38:19.164Z,9.90
2018-01-05T03:40:46.708Z,14.43
2018-01-05T03:43:14.161Z,14.33
2018-01-05T03:45:41.570Z,11.67
2018-01-05T03:48:09.081Z,5.60
2018-01-05T03:50:36.500Z,14.03
2018-01-05T03:53:03.926Z,15.03
2018-01-05T03:55:31.342Z,16.23
2018-01-05T03:57:58.750Z,15.30
2018-01-05T04:00:26.169Z,12.33
2018-01-05T04:02:53.609Z,11.90
2018-01-05T04:05:21.078Z,16.53
2018-01-05T04:07:48.493Z,16.83
2018-01-05T04:10:16.726Z,15.70
2018-01-05T04:12:44.173Z,12.47
2018-01-05T04:15:11.597Z,11.37
2018-01-05T04:17:39.019Z,14.53
2018-01-05T04:20:06.495Z,16.50
2018-01-05T04:22:33.905Z,9.73
2018-01-05T04:25:01.321Z,15.63
2018-01-05T04:27:28.827Z,12.77
2018-01-05T04:29:56.264Z,17.80
2018-01-05T04:32:23.672Z,21.57
2018-01-05T04:34:51.106Z,17.40
2018-01-05T04:37:18.529Z,15.20
2018-01-05T04:39:45.952Z,15.57
2018-01-05T04:42:13.368Z,15.53
2018-01-05T04:44:40.974Z,16.07
2018-01-05T04:47:08.382Z,17.47
2018-01-05T04:49:36.647Z,11.90
2018-01-05T04:52:04.057Z,20.27
2018-01-05T04:54:33.018Z,13.93
2018-01-05T04:57:00.476Z,15.07
2018-01-05T04:59:27.887Z,13.47
2018-01-05T05:01:55.307Z,15.73
2018-01-05T05:04:22.733Z,19.37
2018-01-05T05:06:50.257Z,18.50
2018-01-05T05:09:17.671Z,19.53
2018-01-05T05:11:45.078Z,13.30
2018-01-05T05:14:12.493Z,17.97
2018-01-05T05:16:39.904Z,22.13
2018-01-05T05:19:07.309Z,15.67
2018-01-05T05:21:34.725Z,16.60
2018-01-05T05:24:02.969Z,20.33
2018-01-05T05:26:30.425Z,21.23
2018-01-05T05:28:57.882Z,18.63
2018-01-05T05:31:25.293Z,23.40
2018-01-05T05:33:52.760Z,14.23
2018-01-05T05:36:20.177Z,15.03
2018-01-05T05:38:47.660Z,11.73
2018-01-05T05:41:15.135Z,21.63
2018-01-05T05:43:42.602Z,20.43
2018-01-05T05:46:10.049Z,21.10
2018-01-05T05:48:37.466Z,28.07
2018-01-05T05:51:04.888Z,27.77
2018-01-05T05:53:32.359Z,24.40
2018-01-05T05:55:59.779Z,19.47
2018-01-05T05:58:27.187Z,9.90
2018-01-05T06:00:54.602Z,18.93
2018-01-05T06:03:22.038Z,23.77
2018-01-05T06:05:49.462Z,29.70
2018-01-05T06:08:16.889Z,18.13
2018-01-05T06:10:44.306Z,17.17
2018-01-05T06:13:12.544Z,22.47
2018-01-05T06:15:39.957Z,16.53
2018-01-05T06:18:08.194Z,16.50
2018-01-05T06:20:36.337Z,23.10
2018-01-05T06:23:04.523Z,17.73
2018-01-05T06:25:32.742Z,12.07
2018-01-05T06:28:00.222Z,17.50
2018-01-05T06:30:27.631Z,25.53
2018-01-05T06:32:55.045Z,14.67
2018-01-05T06:35:22.989Z,21.47
2018-01-05T06:37:51.213Z,17.10
2018-01-05T06:40:19.381Z,17.43
2018-01-05T06:42:47.554Z,16.37
2018-01-05T06:45:15.799Z,12.57
2018-01-05T06:47:43.233Z,17.00
2018-01-05T06:50:10.652Z,21.00
2018-01-05T06:52:38.053Z,21.87
2018-01-05T06:55:06.262Z,16.43
2018-01-05T06:57:33.661Z,16.90
2018-01-05T07:00:01.107Z,23.57
2018-01-05T07:02:28.522Z,18.37
2018-01-05T07:04:55.958Z,24.90
2018-01-05T07:07:23.349Z,28.07
2018-01-05T07:09:50.787Z,14.73
2018-01-05T07:12:18.228Z,15.10
2018-01-05T07:14:45.701Z,13.77
2018-01-05T07:17:13.162Z,14.53
2018-01-05T07:19:40.643Z,10.97
2018-01-05T07:22:08.101Z,8.23
2018-01-05T07:24:35.544Z,20.60
2018-01-05T07:27:03.730Z,11.77
2018-01-05T07:29:31.127Z,15.40
2018-01-05T07:31:58.529Z,17.63
2018-01-05T07:34:25.945Z,17.60
2018-01-05T07:36:54.135Z,16.80
2018-01-05T07:39:22.341Z,17.70
2018-01-05T07:41:49.750Z,11.60
2018-01-05T07:44:17.168Z,19.97
2018-01-05T07:46:44.599Z,15.33
2018-01-05T07:49:12.173Z,13.70
2018-01-05T07:51:39.601Z,19.97
2018-01-05T07:54:07.054Z,16.77
2018-01-05T07:56:34.498Z,18.63
2018-01-05T07:59:02.702Z,23.33
2018-01-05T08:01:30.143Z,19.30
2018-01-05T08:03:57.562Z,17.87
2018-01-05T08:06:25.042Z,10.20
2018-01-05T08:08:52.457Z,15.17
2018-01-05T08:11:20.666Z,21.13
2018-01-05T08:13:48.097Z,15.70
2018-01-05T08:16:15.503Z,22.07
2018-01-05T08:18:42.945Z,20.20
2018-01-05T08:21:11.131Z,17.30
2018-01-05T08:23:39.519Z,17.80
2018-01-05T08:26:06.926Z,14.30
2018-01-05T08:28:34.345Z,16.33
2018-01-05T08:31:01.758Z,10.20
2018-01-05T08:33:29.243Z,15.13
2018-01-05T08:35:56.630Z,13.50
2018-01-05T08:38:24.043Z,12.23
2018-01-05T08:40:51.529Z,14.87
2018-01-05T08:43:19.685Z,16.73
2018-01-05T08:45:47.869Z,12.80
2018-01-05T08:48:16.200Z,14.73
2018-01-05T08:50:43.641Z,16.77
2018-01-05T08:53:11.834Z,16.87
2018-01-05T08:55:40.042Z,18.63
2018-01-05T08:58:07.489Z,17.67
2018-01-05T09:00:34.929Z,13.70
2018-01-05T09:03:02.320Z,18.30
2018-01-05T09:05:29.740Z,13.03
2018-01-05T09:07:57.154Z,11.53
2018-01-05T09:10:25.326Z,13.37
2018-01-05T09:12:53.522Z,16.50
2018-01-05T09:15:21.992Z,10.47
2018-01-05T09:17:49.400Z,11.60
2018-01-05T09:20:16.840Z,9.30
2018-01-05T09:22:44.383Z,11.83
2018-01-05T09:25:11.817Z,9.07
2018-01-05T09:27:39.270Z,7.17
2018-01-05T09:30:06.698Z,12.50
2018-01-05T09:32:34.105Z,7.53
2018-01-05T09:35:01.597Z,10.90
2018-01-05T09:37:29.049Z,4.53
2018-01-05T09:39:56.457Z,6.63
2018-01-05T09:42:23.874Z,7.93
2018-01-05T09:44:51.371Z,7.20
2018-01-05T09:47:18.886Z,8.30
2018-01-05T09:49:46.397Z,10.00
2018-01-05T09:52:14.607Z,8.10
2018-01-05T09:54:42.047Z,10.50
2018-01-05T09:57:09.454Z,8.00
2018-01-05T09:59:36.882Z,6.27
2018-01-05T10:02:04.278Z,9.77
2018-01-05T10:04:31.713Z,7.63
2018-01-05T10:06:59.190Z,6.93
2018-01-05T10:09:26.600Z,5.43
2018-01-05T10:11:54.031Z,3.77
2018-01-05T10:14:21.538Z,5.23
2018-01-05T10:16:48.944Z,6.13
2018-01-05T10:19:17.148Z,5.77
2018-01-05T10:21:44.566Z,7.70
2018-01-05T10:24:11.973Z,6.03
2018-01-05T10:26:39.378Z,7.37
2018-01-05T10:29:06.828Z,6.83
2018-01-05T10:31:34.302Z,4.10
2018-01-05T10:34:01.759Z,5.13
2018-01-05T10:36:29.228Z,3.47
2018-01-05T10:38:56.582Z,4.17
2018-01-05T10:41:24.792Z,5.07
2018-01-05T10:43:53.029Z,3.73
2018-01-05T10:46:21.247Z,9.83
2018-01-05T10:48:48.658Z,6.50
2018-01-05T10:51:16.062Z,6.47
2018-01-05T10:53:43.489Z,6.60
2018-01-05T10:56:10.893Z,4.93
2018-01-05T10:58:39.835Z,26.53
2018-01-05T11:01:07.252Z,34.37
2018-01-05T11:03:34.668Z,4.10
2018-01-05T11:06:02.101Z,8.13
2018-01-05T11:08:29.717Z,5.47
2018-01-05T11:10:57.853Z,5.57
2018-01-05T11:13:25.370Z,5.70
2018-01-05T11:15:52.773Z,19.60
2018-01-05T11:18:20.183Z,7.17
2018-01-05T11:20:48.406Z,10.43
2018-01-05T11:23:15.879Z,16.47
2018-01-05T11:25:43.430Z,4.93
2018-01-05T11:28:10.905Z,9.47
2018-01-05T11:30:38.355Z,6.70
2018-01-05T11:33:05.807Z,5.00
2018-01-05T11:35:33.990Z,8.10
2018-01-05T11:38:01.400Z,6.93
2018-01-05T11:40:28.813Z,8.13
2018-01-05T11:42:57.022Z,10.80
2018-01-05T11:45:25.200Z,9.20
2018-01-05T11:47:54.455Z,10.47
2018-01-05T11:50:21.870Z,7.33
2018-01-05T11:52:49.288Z,6.27
2018-01-05T11:55:16.705Z,11.00
2018-01-05T11:57:44.127Z,11.93
2018-01-05T12:00:11.551Z,5.33
2018-01-05T12:02:39.758Z,11.67
2018-01-05T12:05:07.173Z,14.30
2018-01-05T12:07:34.603Z,4.43
2018-01-05T12:10:02.022Z,7.73
2018-01-05T12:12:29.432Z,9.00
2018-01-05T12:14:56.845Z,6.37
2018-01-05T12:17:24.326Z,17.00
2018-01-05T12:19:51.862Z,7.53
2018-01-05T12:22:19.267Z,6.70
2018-01-05T12:24:46.786Z,5.90
2018-01-05T12:27:14.198Z,7.20
2018-01-05T12:29:41.713Z,6.50
2018-01-05T12:32:09.181Z,12.43
2018-01-05T12:34:36.669Z,8.17
2018-01-05T12:37:04.086Z,5.93
2018-01-05T12:39:31.506Z,12.37
2018-01-05T12:41:58.916Z,8.20
2018-01-05T12:44:26.318Z,7.80
2018-01-05T12:46:53.732Z,7.40
2018-01-05T12:49:21.153Z,8.63
2018-01-05T12:51:49.350Z,5.63
2018-01-05T12:54:16.842Z,5.93
2018-01-05T12:56:44.265Z,7.13
2018-01-05T12:59:12.496Z,8.40
2018-01-05T13:01:39.942Z,6.10
2018-01-05T13:04:07.377Z,11.20
2018-01-05T13:06:34.834Z,7.13
2018-01-05T13:09:02.357Z,4.47
2018-01-05T13:11:30.510Z,3.90
2018-01-05T13:13:58.707Z,6.80
2018-01-05T13:16:26.126Z,6.53
2018-01-05T13:18:53.595Z,10.13
2018-01-05T13:21:21.002Z,13.13
2018-01-05T13:23:49.196Z,9.33
2018-01-05T13:26:17.383Z,5.70
2018-01-05T13:28:45.563Z,11.07
2018-01-05T13:31:13.793Z,10.80
2018-01-05T13:33:41.254Z,6.23
2018-01-05T13:36:08.734Z,3.23
2018-01-05T13:38:36.174Z,7.37
2018-01-05T13:41:03.669Z,10.50
2018-01-05T13:43:31.133Z,6.60
2018-01-05T13:45:58.557Z,10.03
2018-01-05T13:48:26.758Z,8.10
2018-01-05T13:50:54.929Z,8.03
2018-01-05T13:53:23.101Z,5.80
2018-01-05T13:55:50.520Z,6.10
2018-01-05T13:58:18.043Z,8.83
2018-01-05T14:00:45.469Z,8.93
2018-01-05T14:03:12.930Z,14.07
2018-01-05T14:05:40.346Z,6.33
2018-01-05T14:08:07.779Z,6.03
2018-01-05T14:10:35.214Z,8.37
2018-01-05T14:13:02.625Z,8.67
2018-01-05T14:15:30.061Z,8.33
2018-01-05T14:17:57.535Z,9.20
2018-01-05T14:20:25.686Z,10.50
2018-01-05T14:22:54.016Z,8.13
2018-01-05T14:25:21.485Z,8.63
2018-01-05T14:27:48.902Z,10.60
2018-01-05T14:30:16.406Z,8.63
2018-01-05T14:32:44.353Z,13.30
2018-01-05T14:35:12.551Z,10.03
2018-01-05T14:37:40.710Z,10.77
2018-01-05T14:40:08.127Z,9.83
2018-01-05T14:42:35.593Z,12.13
2018-01-05T14:45:03.020Z,11.90
2018-01-05T14:47:30.534Z,11.27
2018-01-05T14:49:58.006Z,12.70
2018-01-05T14:52:25.426Z,11.93
2018-01-05T14:54:52.861Z,12.63
2018-01-05T14:57:20.562Z,15.90
2018-01-05T14:59:47.945Z,9.97
2018-01-05T15:02:15.360Z,14.30
2018-01-05T15:04:42.832Z,9.30
2018-01-05T15:07:10.258Z,15.20
2018-01-05T15:09:38.270Z,15.07
2018-01-05T15:12:06.436Z,17.33
2018-01-05T15:14:34.613Z,14.10
2018-01-05T15:17:02.790Z,11.77
2018-01-05T15:19:30.195Z,14.90
2018-01-05T15:21:57.610Z,16.10
2018-01-05T15:24:25.031Z,13.20
2018-01-05T15:26:52.434Z,12.60
2018-01-05T15:29:19.870Z,14.70
2018-01-05T15:31:47.298Z,13.80
2018-01-05T15:34:15.490Z,15.90
2018-01-05T15:36:43.730Z,16.10
2018-01-05T15:39:11.138Z,15.03
2018-01-05T15:41:39.360Z,15.17
2018-01-05T15:44:06.852Z,17.00
2018-01-05T15:46:34.294Z,15.83
2018-01-05T15:49:01.710Z,20.40
2018-01-05T15:51:29.122Z,20.70
2018-01-05T15:53:56.538Z,21.77
2018-01-05T15:56:23.946Z,21.83
2018-01-05T15:58:52.157Z,19.33
2018-01-05T16:01:19.634Z,19.20
2018-01-05T16:03:47.042Z,18.50
2018-01-05T16:06:15.402Z,26.13
2018-01-05T16:08:42.855Z,25.10
2018-01-05T16:11:11.159Z,18.07
2018-01-05T16:13:38.593Z,23.90
2018-01-05T16:16:06.771Z,27.23
2018-01-05T16:18:34.969Z,25.63
2018-01-05T16:21:02.494Z,30.70
2018-01-05T16:23:29.913Z,28.80
2018-01-05T16:25:57.392Z,23.03
2018-01-05T16:28:24.868Z,25.80
2018-01-05T16:30:52.335Z,23.67
2018-01-05T16:33:19.790Z,22.63
2018-01-05T16:35:47.221Z,38.00
2018-01-05T16:38:14.650Z,34.83
2018-01-05T16:40:42.122Z,25.57
2018-01-05T16:43:09.529Z,23.30
2018-01-05T16:45:36.957Z,25.50
2018-01-05T16:48:04.382Z,22.00
2018-01-05T16:50:32.573Z,27.17
2018-01-05T16:53:00.766Z,17.60
2018-01-05T16:55:28.167Z,25.73
2018-01-05T16:57:55.598Z,22.50
2018-01-05T17:00:23.070Z,26.00
2018-01-05T17:02:50.542Z,20.57
2018-01-05T17:05:17.947Z,27.30
2018-01-05T17:07:45.426Z,20.73
2018-01-05T17:10:12.834Z,27.10
2018-01-05T17:12:41.036Z,23.83
2018-01-05T17:15:08.456Z,21.53
2018-01-05T17:17:35.862Z,32.07
2018-01-05T17:20:03.274Z,28.93
2018-01-05T17:22:30.711Z,29.30
2018-01-05T17:24:58.124Z,28.37
2018-01-05T17:27:25.536Z,27.87
2018-01-05T17:29:53.714Z,27.83
2018-01-05T17:32:21.897Z,27.03
2018-01-05T17:34:50.125Z,29.27
2018-01-05T17:37:17.529Z,20.13
2018-01-05T17:39:44.943Z,30.23
2018-01-05T17:42:12.488Z,35.13
2018-01-05T17:44:39.873Z,24.63
2018-01-05T17:47:07.356Z,23.40
2018-01-05T17:49:34.809Z,23.60
2018-01-05T17:52:02.221Z,35.17
2018-01-05T17:54:29.642Z,31.73
2018-01-05T17:56:57.078Z,24.83
2018-01-05T17:59:24.457Z,24.10
2018-01-05T18:01:52.646Z,25.00
2018-01-05T18:04:20.082Z,32.03
2018-01-05T18:06:47.505Z,26.70
2018-01-05T18:09:14.923Z,25.43
2018-01-05T18:11:42.357Z,23.30
2018-01-05T18:14:09.786Z,27.90
2018-01-05T18:16:37.286Z,30.90
2018-01-05T18:19:04.746Z,32.93
2018-01-05T18:21:32.183Z,27.73
2018-01-05T18:23:59.620Z,18.33
2018-01-05T18:26:27.061Z,32.90
2018-01-05T18:28:54.529Z,23.30
2018-01-05T18:31:21.933Z,25.70
2018-01-05T18:33:49.463Z,27.90
2018-01-05T18:36:16.865Z,30.40
2018-01-05T18:38:44.286Z,26.97
2018-01-05T18:41:12.467Z,17.17
2018-01-05T18:43:40.651Z,29.23
2018-01-05T18:46:08.826Z,26.37
2018-01-05T18:48:37.040Z,26.87
2018-01-05T18:51:04.510Z,37.43
2018-01-05T18:53:32.084Z,23.70
2018-01-05T18:55:59.446Z,34.87
2018-01-05T18:58:26.857Z,35.83
2018-01-05T19:00:54.267Z,29.47
2018-01-05T19:03:22.446Z,20.80
2018-01-05T19:05:51.530Z,25.10
2018-01-05T19:08:18.945Z,22.40
2018-01-05T19:10:46.420Z,25.90
2018-01-05T19:13:13.821Z,31.03
2018-01-05T19:15:41.262Z,23.23
2018-01-05T19:18:08.658Z,28.20
2018-01-05T19:20:36.112Z,24.93
2018-01-05T19:23:03.557Z,28.83
2018-01-05T19:25:30.986Z,35.03
2018-01-05T19:27:58.494Z,28.90
2018-01-05T19:30:25.964Z,29.80
2018-01-05T19:32:53.451Z,23.33
2018-01-05T19:35:20.852Z,23.93
2018-01-05T19:37:48.376Z,36.00
2018-01-05T19:40:15.839Z,32.53
2018-01-05T19:42:43.335Z,30.50
2018-01-05T19:45:10.742Z,24.73
2018-01-05T19:47:38.968Z,25.93
2018-01-05T19:50:07.161Z,37.57
2018-01-05T19:52:34.574Z,35.47
2018-01-05T19:55:02.070Z,25.13
2018-01-05T19:57:29.502Z,30.73
2018-01-05T19:59:56.922Z,23.00
2018-01-05T20:02:24.369Z,28.63
2018-01-05T20:04:52.551Z,36.30
2018-01-05T20:07:20.046Z,26.70
2018-01-05T20:09:47.474Z,22.77
2018-01-05T20:12:15.708Z,37.33
2018-01-05T20:14:43.907Z,47.00
2018-01-05T20:17:11.366Z,27.00
2018-01-05T20:19:38.762Z,23.37
2018-01-05T20:22:06.192Z,29.37
2018-01-05T20:24:33.598Z,27.60
2018-01-05T20:27:01.010Z,21.57
2018-01-05T20:29:29.242Z,35.30
2018-01-05T20:31:56.654Z,21.83
2018-01-05T20:34:24.825Z,16.27
2018-01-05T20:36:52.247Z,26.80
2018-01-05T20:39:19.652Z,29.07
2018-01-05T20:41:47.178Z,31.37
2018-01-05T20:44:14.595Z,26.40
2018-01-05T20:46:42.118Z,27.57
2018-01-05T20:49:09.544Z,15.97
2018-01-05T20:51:36.985Z,30.27
2018-01-05T20:54:04.390Z,16.30
2018-01-05T20:56:32.578Z,16.80
2018-01-05T20:59:00.768Z,20.80
2018-01-05T21:01:28.191Z,22.77
2018-01-05T21:03:55.600Z,23.13
2018-01-05T21:06:23.772Z,12.60
2018-01-05T21:08:51.179Z,21.40
2018-01-05T21:11:18.652Z,17.00
2018-01-05T21:13:46.054Z,17.77
2018-01-05T21:16:13.495Z,13.10
2018-01-05T21:18:41.087Z,29.23
2018-01-05T21:21:08.490Z,16.20
2018-01-05T21:23:36.817Z,20.67
2018-01-05T21:26:04.271Z,18.53
2018-01-05T21:28:31.673Z,18.60
2018-01-05T21:30:59.083Z,22.20
2018-01-05T21:33:26.517Z,21.13
2018-01-05T21:35:53.920Z,13.63
2018-01-05T21:38:22.118Z,18.33
2018-01-05T21:40:50.317Z,18.03
2018-01-05T21:43:17.730Z,15.43
2018-01-05T21:45:45.177Z,17.60
2018-01-05T21:48:12.608Z,21.87
2018-01-05T21:50:40.793Z,17.30
2018-01-05T21:53:08.979Z,19.93
2018-01-05T21:55:36.470Z,18.17
2018-01-05T21:58:04.002Z,13.30
2018-01-05T22:00:31.424Z,18.60
2018-01-05T22:02:58.841Z,23.90
2018-01-05T22:05:27.078Z,16.83
2018-01-05T22:07:54.496Z,17.33
2018-01-05T22:10:21.908Z,17.83
2018-01-05T22:12:49.308Z,21.17
2018-01-05T22:15:16.845Z,23.13
2018-01-05T22:17:44.253Z,15.73
2018-01-05T22:20:11.675Z,19.97
2018-01-05T22:22:39.090Z,19.63
2018-01-05T22:25:06.511Z,17.03
2018-01-05T22:27:33.966Z,17.73
2018-01-05T22:30:01.389Z,18.37
2018-01-05T22:32:28.809Z,16.60
2018-01-05T22:34:56.231Z,22.57
2018-01-05T22:37:23.684Z,18.23
2018-01-05T22:39:51.100Z,15.90
2018-01-05T22:42:19.323Z,16.43
2018-01-05T22:44:46.756Z,18.83
2018-01-05T22:47:14.938Z,14.27
2018-01-05T22:49:42.443Z,10.80
2018-01-05T22:52:09.869Z,14.23
2018-01-05T22:54:38.080Z,17.03
2018-01-05T22:57:05.524Z,13.27
2018-01-05T22:59:32.928Z,18.00
2018-01-05T23:02:00.357Z,14.07
2018-01-05T23:04:28.565Z,12.37
2018-01-05T23:06:56.007Z,12.20
2018-01-05T23:09:23.513Z,17.00
2018-01-05T23:11:50.958Z,12.90
2018-01-05T23:14:19.139Z,16.40
2018-01-05T23:16:47.315Z,12.63
2018-01-05T23:19:14.741Z,16.20
2018-01-05T23:21:42.145Z,20.47
2018-01-05T23:24:09.656Z,13.03
2018-01-05T23:26:37.122Z,9.10
2018-01-05T23:29:04.581Z,13.23
2018-01-05T23:31:32.006Z,16.20
2018-01-05T23:33:59.426Z,13.80
2018-01-05T23:36:26.862Z,8.93
2018-01-05T23:38:55.037Z,11.87
2018-01-05T23:41:22.443Z,11.30
2018-01-05T23:43:49.921Z,10.47
2018-01-05T23:46:17.338Z,8.87
2018-01-05T23:48:44.760Z,16.43
2018-01-05T23:51:12.222Z,8.10
2018-01-05T23:53:39.648Z,11.13
2018-01-05T23:56:07.142Z,9.90
2018-01-05T23:58:35.341Z,6.70
